sensor_id;sensor_type;location;lat;lon;timestamp;pressure;altitude;pressure_sealevel;temperature;humidity
31092;BME280;17747;51.070;10.930;2022-08-19T00:00:41;100338.81;;;19.51;75.68
31092;BME280;17747;51.070;10.930;2022-08-19T00:01:43;100338.53;;;19.56;75.78
31092;BME280;17747;51.070;10.930;2022-08-19T00:02:45;100345.59;;;19.57;75.88
31092;BME280;17747;51.070;10.930;2022-08-19T00:03:46;100338.81;;;19.51;76.12
31092;BME280;17747;51.070;10.930;2022-08-19T00:04:47;100341.25;;;19.81;75.30
31092;BME280;17747;51.070;10.930;2022-08-19T00:05:53;100338.50;;;19.95;74.37
31092;BME280;17747;51.070;10.930;2022-08-19T00:06:55;100334.66;;;20.12;73.95
31092;BME280;17747;51.070;10.930;2022-08-19T00:07:56;100330.91;;;20.15;73.64
31092;BME280;17747;51.070;10.930;2022-08-19T00:08:58;100326.50;;;20.14;73.43
31092;BME280;17747;51.070;10.930;2022-08-19T00:10:00;100330.53;;;19.69;74.56
31092;BME280;17747;51.070;10.930;2022-08-19T00:11:02;100332.28;;;19.43;76.26
31092;BME280;17747;51.070;10.930;2022-08-19T00:12:03;100325.38;;;19.65;75.54
31092;BME280;17747;51.070;10.930;2022-08-19T00:13:04;100329.06;;;19.90;74.71
31092;BME280;17747;51.070;10.930;2022-08-19T00:14:07;100320.69;;;20.07;74.05
31092;BME280;17747;51.070;10.930;2022-08-19T00:15:12;100316.19;;;20.08;73.73
31092;BME280;17747;51.070;10.930;2022-08-19T00:16:12;100319.63;;;19.84;74.27
31092;BME280;17747;51.070;10.930;2022-08-19T00:17:14;100316.75;;;19.48;75.64
31092;BME280;17747;51.070;10.930;2022-08-19T00:18:14;100315.94;;;19.73;75.24
31092;BME280;17747;51.070;10.930;2022-08-19T00:19:16;100317.25;;;19.80;74.89
31092;BME280;17747;51.070;10.930;2022-08-19T00:20:19;100311.69;;;19.95;74.30
31092;BME280;17747;51.070;10.930;2022-08-19T00:21:23;100306.56;;;20.05;74.07
31092;BME280;17747;51.070;10.930;2022-08-19T00:22:23;100307.00;;;20.12;73.61
31092;BME280;17747;51.070;10.930;2022-08-19T00:23:27;100312.75;;;20.18;73.59
31092;BME280;17747;51.070;10.930;2022-08-19T00:24:28;100303.44;;;20.24;73.24
31092;BME280;17747;51.070;10.930;2022-08-19T00:25:30;100298.81;;;20.26;73.19
31092;BME280;17747;51.070;10.930;2022-08-19T00:26:30;100304.59;;;20.33;72.98
31092;BME280;17747;51.070;10.930;2022-08-19T00:27:32;100301.72;;;20.10;73.32
31092;BME280;17747;51.070;10.930;2022-08-19T00:28:33;100310.53;;;19.47;75.54
31092;BME280;17747;51.070;10.930;2022-08-19T00:29:36;100309.53;;;19.23;77.00
31092;BME280;17747;51.070;10.930;2022-08-19T00:30:36;100306.81;;;19.10;77.76
31092;BME280;17747;51.070;10.930;2022-08-19T00:31:38;100300.66;;;19.35;77.39
31092;BME280;17747;51.070;10.930;2022-08-19T00:32:39;100310.81;;;19.30;77.03
31092;BME280;17747;51.070;10.930;2022-08-19T00:33:41;100298.47;;;19.67;75.98
31092;BME280;17747;51.070;10.930;2022-08-19T00:34:41;100294.22;;;19.90;75.01
31092;BME280;17747;51.070;10.930;2022-08-19T00:35:43;100294.22;;;20.03;74.33
31092;BME280;17747;51.070;10.930;2022-08-19T00:36:45;100298.84;;;20.13;73.91
31092;BME280;17747;51.070;10.930;2022-08-19T00:37:48;100293.47;;;20.13;74.00
31092;BME280;17747;51.070;10.930;2022-08-19T00:38:49;100289.91;;;20.26;73.54
31092;BME280;17747;51.070;10.930;2022-08-19T00:39:53;100287.22;;;20.26;73.27
31092;BME280;17747;51.070;10.930;2022-08-19T00:40:56;100301.38;;;20.28;73.05
31092;BME280;17747;51.070;10.930;2022-08-19T00:41:56;100300.94;;;20.21;73.27
31092;BME280;17747;51.070;10.930;2022-08-19T00:42:58;100299.81;;;20.12;73.52
31092;BME280;17747;51.070;10.930;2022-08-19T00:44:01;100302.66;;;19.71;74.80
31092;BME280;17747;51.070;10.930;2022-08-19T00:45:10;100304.22;;;19.48;76.23
31092;BME280;17747;51.070;10.930;2022-08-19T00:46:11;100303.88;;;19.40;76.39
31092;BME280;17747;51.070;10.930;2022-08-19T00:47:13;100308.53;;;19.76;75.16
31092;BME280;17747;51.070;10.930;2022-08-19T00:48:14;100307.78;;;19.74;75.27
31092;BME280;17747;51.070;10.930;2022-08-19T00:49:19;100306.94;;;19.74;75.35
31092;BME280;17747;51.070;10.930;2022-08-19T00:50:20;100305.69;;;19.92;74.36
31092;BME280;17747;51.070;10.930;2022-08-19T00:51:22;100298.19;;;19.97;74.30
31092;BME280;17747;51.070;10.930;2022-08-19T00:52:29;100291.94;;;20.09;73.89
31092;BME280;17747;51.070;10.930;2022-08-19T00:53:33;100300.53;;;20.14;73.47
31092;BME280;17747;51.070;10.930;2022-08-19T00:54:35;100293.66;;;20.10;73.59
31092;BME280;17747;51.070;10.930;2022-08-19T00:55:37;100288.97;;;19.88;74.09
31092;BME280;17747;51.070;10.930;2022-08-19T00:56:39;100298.59;;;19.65;75.58
31092;BME280;17747;51.070;10.930;2022-08-19T00:57:45;100296.44;;;19.31;76.55
31092;BME280;17747;51.070;10.930;2022-08-19T00:58:46;100296.44;;;19.04;78.23
31092;BME280;17747;51.070;10.930;2022-08-19T00:59:51;100297.19;;;19.20;78.26
31092;BME280;17747;51.070;10.930;2022-08-19T01:00:52;100303.94;;;19.26;77.65
31092;BME280;17747;51.070;10.930;2022-08-19T01:01:54;100299.78;;;19.22;77.78
31092;BME280;17747;51.070;10.930;2022-08-19T01:02:55;100299.19;;;19.44;76.67
31092;BME280;17747;51.070;10.930;2022-08-19T01:03:56;100301.53;;;19.48;76.85
31092;BME280;17747;51.070;10.930;2022-08-19T01:04:59;100295.31;;;19.35;76.72
31092;BME280;17747;51.070;10.930;2022-08-19T01:06:01;100300.56;;;19.49;77.09
31092;BME280;17747;51.070;10.930;2022-08-19T01:07:02;100292.28;;;19.27;77.72
31092;BME280;17747;51.070;10.930;2022-08-19T01:08:06;100305.41;;;19.44;76.89
31092;BME280;17747;51.070;10.930;2022-08-19T01:09:08;100305.19;;;19.60;76.76
31092;BME280;17747;51.070;10.930;2022-08-19T01:10:12;100300.16;;;19.55;76.74
31092;BME280;17747;51.070;10.930;2022-08-19T01:11:14;100303.91;;;19.53;76.28
31092;BME280;17747;51.070;10.930;2022-08-19T01:12:16;100302.97;;;19.54;76.75
31092;BME280;17747;51.070;10.930;2022-08-19T01:13:21;100303.16;;;19.76;76.07
31092;BME280;17747;51.070;10.930;2022-08-19T01:14:23;100307.53;;;19.52;76.48
31092;BME280;17747;51.070;10.930;2022-08-19T01:15:29;100311.72;;;19.43;77.15
31092;BME280;17747;51.070;10.930;2022-08-19T01:16:32;100306.50;;;19.67;76.41
31092;BME280;17747;51.070;10.930;2022-08-19T01:17:34;100306.53;;;19.80;75.88
31092;BME280;17747;51.070;10.930;2022-08-19T01:18:40;100305.00;;;19.76;75.92
31092;BME280;17747;51.070;10.930;2022-08-19T01:19:43;100304.97;;;19.63;76.32
31092;BME280;17747;51.070;10.930;2022-08-19T01:20:45;100302.50;;;19.47;76.88
31092;BME280;17747;51.070;10.930;2022-08-19T01:21:50;100308.81;;;19.33;77.79
31092;BME280;17747;51.070;10.930;2022-08-19T01:22:56;100306.56;;;19.40;77.37
31092;BME280;17747;51.070;10.930;2022-08-19T01:23:57;100307.69;;;19.23;78.07
31092;BME280;17747;51.070;10.930;2022-08-19T01:24:59;100307.31;;;19.42;77.66
31092;BME280;17747;51.070;10.930;2022-08-19T01:25:59;100305.66;;;19.66;76.71
31092;BME280;17747;51.070;10.930;2022-08-19T01:27:03;100304.91;;;19.25;77.74
31092;BME280;17747;51.070;10.930;2022-08-19T01:28:04;100306.56;;;19.40;77.67
31092;BME280;17747;51.070;10.930;2022-08-19T01:29:07;100307.50;;;19.39;77.31
31092;BME280;17747;51.070;10.930;2022-08-19T01:30:09;100306.66;;;19.38;77.57
31092;BME280;17747;51.070;10.930;2022-08-19T01:31:14;100307.16;;;19.71;76.60
31092;BME280;17747;51.070;10.930;2022-08-19T01:32:17;100310.84;;;19.95;75.69
31092;BME280;17747;51.070;10.930;2022-08-19T01:33:18;100302.38;;;20.01;75.04
31092;BME280;17747;51.070;10.930;2022-08-19T01:34:20;100304.38;;;20.10;74.92
31092;BME280;17747;51.070;10.930;2022-08-19T01:35:21;100303.34;;;20.00;74.59
31092;BME280;17747;51.070;10.930;2022-08-19T01:36:26;100308.50;;;20.03;74.87
31092;BME280;17747;51.070;10.930;2022-08-19T01:37:27;100310.72;;;20.09;74.50
31092;BME280;17747;51.070;10.930;2022-08-19T01:38:30;100307.19;;;20.09;74.56
31092;BME280;17747;51.070;10.930;2022-08-19T01:39:31;100307.41;;;20.18;74.35
31092;BME280;17747;51.070;10.930;2022-08-19T01:40:34;100306.97;;;20.24;74.13
31092;BME280;17747;51.070;10.930;2022-08-19T01:41:36;100303.09;;;20.29;73.94
31092;BME280;17747;51.070;10.930;2022-08-19T01:42:37;100305.91;;;20.02;74.32
31092;BME280;17747;51.070;10.930;2022-08-19T01:43:39;100306.19;;;19.72;75.73
31092;BME280;17747;51.070;10.930;2022-08-19T01:44:40;100303.94;;;19.65;76.08
31092;BME280;17747;51.070;10.930;2022-08-19T01:45:42;100306.06;;;19.73;76.22
31092;BME280;17747;51.070;10.930;2022-08-19T01:46:44;100303.13;;;19.90;75.41
31092;BME280;17747;51.070;10.930;2022-08-19T01:47:45;100299.88;;;19.98;74.74
31092;BME280;17747;51.070;10.930;2022-08-19T01:48:47;100299.69;;;20.01;74.76
31092;BME280;17747;51.070;10.930;2022-08-19T01:49:47;100289.38;;;20.08;74.49
31092;BME280;17747;51.070;10.930;2022-08-19T01:50:49;100293.03;;;20.19;74.20
31092;BME280;17747;51.070;10.930;2022-08-19T01:51:50;100297.72;;;20.29;74.07
31092;BME280;17747;51.070;10.930;2022-08-19T01:52:52;100300.00;;;20.35;73.64
31092;BME280;17747;51.070;10.930;2022-08-19T01:53:54;100299.22;;;20.33;73.47
31092;BME280;17747;51.070;10.930;2022-08-19T01:54:55;100290.88;;;20.24;73.09
31092;BME280;17747;51.070;10.930;2022-08-19T01:55:56;100296.06;;;20.02;73.55
31092;BME280;17747;51.070;10.930;2022-08-19T01:57:02;100290.25;;;20.08;73.76
31092;BME280;17747;51.070;10.930;2022-08-19T01:58:05;100284.84;;;20.21;73.52
31092;BME280;17747;51.070;10.930;2022-08-19T01:59:12;100292.16;;;20.19;73.34
31092;BME280;17747;51.070;10.930;2022-08-19T02:00:16;100289.59;;;20.17;73.45
31092;BME280;17747;51.070;10.930;2022-08-19T02:01:18;100289.81;;;20.14;73.83
31092;BME280;17747;51.070;10.930;2022-08-19T02:02:19;100286.16;;;20.15;73.87
31092;BME280;17747;51.070;10.930;2022-08-19T02:03:20;100285.94;;;19.80;74.81
31092;BME280;17747;51.070;10.930;2022-08-19T02:04:21;100291.81;;;19.60;75.96
31092;BME280;17747;51.070;10.930;2022-08-19T02:05:23;100285.34;;;19.37;76.57
31092;BME280;17747;51.070;10.930;2022-08-19T02:06:24;100294.09;;;19.26;77.20
31092;BME280;17747;51.070;10.930;2022-08-19T02:07:25;100293.41;;;19.50;76.95
31092;BME280;17747;51.070;10.930;2022-08-19T02:08:27;100283.06;;;19.83;75.56
31092;BME280;17747;51.070;10.930;2022-08-19T02:09:31;100291.56;;;19.90;74.96
31092;BME280;17747;51.070;10.930;2022-08-19T02:10:38;100285.97;;;19.93;75.02
31092;BME280;17747;51.070;10.930;2022-08-19T02:11:39;100281.97;;;19.99;74.47
31092;BME280;17747;51.070;10.930;2022-08-19T02:12:40;100283.81;;;20.11;74.17
31092;BME280;17747;51.070;10.930;2022-08-19T02:13:41;100285.72;;;20.21;73.93
31092;BME280;17747;51.070;10.930;2022-08-19T02:14:42;100283.81;;;20.11;74.05
31092;BME280;17747;51.070;10.930;2022-08-19T02:15:43;100284.63;;;19.73;75.33
31092;BME280;17747;51.070;10.930;2022-08-19T02:16:45;100286.50;;;19.98;75.00
31092;BME280;17747;51.070;10.930;2022-08-19T02:17:46;100275.88;;;19.97;74.46
31092;BME280;17747;51.070;10.930;2022-08-19T02:18:48;100285.09;;;19.80;75.09
31092;BME280;17747;51.070;10.930;2022-08-19T02:19:48;100279.47;;;19.45;76.90
31092;BME280;17747;51.070;10.930;2022-08-19T02:20:50;100276.41;;;19.24;76.94
31092;BME280;17747;51.070;10.930;2022-08-19T02:21:51;100276.78;;;19.32;76.97
31092;BME280;17747;51.070;10.930;2022-08-19T02:22:52;100276.91;;;19.43;77.02
31092;BME280;17747;51.070;10.930;2022-08-19T02:23:53;100274.59;;;19.77;75.85
31092;BME280;17747;51.070;10.930;2022-08-19T02:24:56;100277.53;;;19.47;76.41
31092;BME280;17747;51.070;10.930;2022-08-19T02:25:57;100276.44;;;19.36;76.90
31092;BME280;17747;51.070;10.930;2022-08-19T02:26:58;100284.19;;;18.87;78.73
31092;BME280;17747;51.070;10.930;2022-08-19T02:27:59;100286.06;;;19.26;77.94
31092;BME280;17747;51.070;10.930;2022-08-19T02:29:00;100284.09;;;19.16;78.11
31092;BME280;17747;51.070;10.930;2022-08-19T02:30:01;100290.75;;;19.10;78.33
31092;BME280;17747;51.070;10.930;2022-08-19T02:31:09;100288.31;;;19.05;78.81
31092;BME280;17747;51.070;10.930;2022-08-19T02:32:09;100286.81;;;19.28;78.25
31092;BME280;17747;51.070;10.930;2022-08-19T02:33:18;100288.81;;;19.64;76.79
31092;BME280;17747;51.070;10.930;2022-08-19T02:34:18;100282.50;;;19.78;76.03
31092;BME280;17747;51.070;10.930;2022-08-19T02:35:20;100287.00;;;19.78;75.60
31092;BME280;17747;51.070;10.930;2022-08-19T02:36:21;100284.22;;;19.79;75.52
31092;BME280;17747;51.070;10.930;2022-08-19T02:37:22;100281.09;;;19.73;75.48
31092;BME280;17747;51.070;10.930;2022-08-19T02:38:42;100286.09;;;19.39;76.40
31092;BME280;17747;51.070;10.930;2022-08-19T02:39:43;100286.06;;;18.99;78.54
31092;BME280;17747;51.070;10.930;2022-08-19T02:40:50;100284.72;;;18.65;79.92
31092;BME280;17747;51.070;10.930;2022-08-19T02:41:52;100283.78;;;18.66;80.65
31092;BME280;17747;51.070;10.930;2022-08-19T02:42:54;100285.91;;;18.88;79.83
31092;BME280;17747;51.070;10.930;2022-08-19T02:43:55;100289.38;;;19.03;78.81
31092;BME280;17747;51.070;10.930;2022-08-19T02:44:58;100286.25;;;19.11;78.41
31092;BME280;17747;51.070;10.930;2022-08-19T02:45:58;100285.47;;;19.48;77.06
31092;BME280;17747;51.070;10.930;2022-08-19T02:47:00;100288.47;;;19.44;76.86
31092;BME280;17747;51.070;10.930;2022-08-19T02:48:01;100285.81;;;19.17;77.35
31092;BME280;17747;51.070;10.930;2022-08-19T02:49:05;100294.81;;;19.16;77.72
31092;BME280;17747;51.070;10.930;2022-08-19T02:50:06;100288.63;;;19.01;77.67
31092;BME280;17747;51.070;10.930;2022-08-19T02:51:08;100287.16;;;18.83;78.70
31092;BME280;17747;51.070;10.930;2022-08-19T02:52:09;100290.34;;;18.75;79.40
31092;BME280;17747;51.070;10.930;2022-08-19T02:53:11;100291.25;;;18.88;79.22
31092;BME280;17747;51.070;10.930;2022-08-19T02:54:13;100299.56;;;19.25;77.86
31092;BME280;17747;51.070;10.930;2022-08-19T02:55:15;100288.91;;;19.63;76.33
31092;BME280;17747;51.070;10.930;2022-08-19T02:56:17;100298.69;;;19.77;75.55
31092;BME280;17747;51.070;10.930;2022-08-19T02:57:19;100297.38;;;19.44;75.84
31092;BME280;17747;51.070;10.930;2022-08-19T02:58:20;100302.47;;;19.07;77.54
31092;BME280;17747;51.070;10.930;2022-08-19T02:59:23;100299.41;;;18.87;78.54
31092;BME280;17747;51.070;10.930;2022-08-19T03:00:24;100291.16;;;18.90;78.82
31092;BME280;17747;51.070;10.930;2022-08-19T03:01:28;100293.69;;;19.32;77.72
31092;BME280;17747;51.070;10.930;2022-08-19T03:02:29;100289.03;;;19.61;76.27
31092;BME280;17747;51.070;10.930;2022-08-19T03:03:30;100290.22;;;19.70;75.75
31092;BME280;17747;51.070;10.930;2022-08-19T03:04:32;100298.69;;;19.77;75.53
31092;BME280;17747;51.070;10.930;2022-08-19T03:05:33;100299.03;;;19.85;75.07
31092;BME280;17747;51.070;10.930;2022-08-19T03:06:36;100299.84;;;19.73;75.21
31092;BME280;17747;51.070;10.930;2022-08-19T03:07:38;100305.16;;;19.87;74.76
31092;BME280;17747;51.070;10.930;2022-08-19T03:08:40;100296.97;;;19.76;75.11
31092;BME280;17747;51.070;10.930;2022-08-19T03:09:42;100308.84;;;19.19;76.81
31092;BME280;17747;51.070;10.930;2022-08-19T03:10:44;100309.66;;;19.07;77.48
31092;BME280;17747;51.070;10.930;2022-08-19T03:11:47;100311.28;;;18.95;78.17
31092;BME280;17747;51.070;10.930;2022-08-19T03:12:48;100315.44;;;18.87;78.43
31092;BME280;17747;51.070;10.930;2022-08-19T03:13:50;100323.69;;;18.69;79.37
31092;BME280;17747;51.070;10.930;2022-08-19T03:14:51;100327.34;;;18.68;79.83
31092;BME280;17747;51.070;10.930;2022-08-19T03:15:53;100318.56;;;18.93;79.05
31092;BME280;17747;51.070;10.930;2022-08-19T03:16:53;100319.75;;;18.89;78.80
31092;BME280;17747;51.070;10.930;2022-08-19T03:17:55;100331.22;;;19.18;78.14
31092;BME280;17747;51.070;10.930;2022-08-19T03:18:56;100327.16;;;19.52;76.67
31092;BME280;17747;51.070;10.930;2022-08-19T03:20:00;100335.63;;;19.59;75.98
31092;BME280;17747;51.070;10.930;2022-08-19T03:21:00;100339.44;;;18.88;77.91
31092;BME280;17747;51.070;10.930;2022-08-19T03:22:02;100352.09;;;18.58;79.64
31092;BME280;17747;51.070;10.930;2022-08-19T03:23:04;100345.97;;;18.56;80.03
31092;BME280;17747;51.070;10.930;2022-08-19T03:24:07;100346.94;;;18.55;80.38
31092;BME280;17747;51.070;10.930;2022-08-19T03:25:09;100354.56;;;18.75;79.54
31092;BME280;17747;51.070;10.930;2022-08-19T03:26:11;100356.19;;;18.49;80.49
31092;BME280;17747;51.070;10.930;2022-08-19T03:27:14;100349.13;;;19.03;79.29
31092;BME280;17747;51.070;10.930;2022-08-19T03:28:15;100352.94;;;19.41;77.57
31092;BME280;17747;51.070;10.930;2022-08-19T03:29:18;100351.25;;;19.52;76.64
31092;BME280;17747;51.070;10.930;2022-08-19T03:30:19;100350.84;;;19.58;76.08
31092;BME280;17747;51.070;10.930;2022-08-19T03:31:21;100342.59;;;19.61;75.99
31092;BME280;17747;51.070;10.930;2022-08-19T03:32:23;100352.22;;;19.51;76.14
31092;BME280;17747;51.070;10.930;2022-08-19T03:33:25;100361.13;;;19.64;75.98
31092;BME280;17747;51.070;10.930;2022-08-19T03:34:29;100357.25;;;19.43;76.08
31092;BME280;17747;51.070;10.930;2022-08-19T03:35:30;100358.13;;;19.02;77.89
31092;BME280;17747;51.070;10.930;2022-08-19T03:36:32;100357.97;;;18.91;78.50
31092;BME280;17747;51.070;10.930;2022-08-19T03:37:34;100362.72;;;19.15;78.03
31092;BME280;17747;51.070;10.930;2022-08-19T03:38:36;100354.38;;;19.46;77.10
31092;BME280;17747;51.070;10.930;2022-08-19T03:39:39;100353.56;;;19.71;76.01
31092;BME280;17747;51.070;10.930;2022-08-19T03:40:40;100354.97;;;19.77;75.57
31092;BME280;17747;51.070;10.930;2022-08-19T03:41:44;100345.34;;;19.87;75.24
31092;BME280;17747;51.070;10.930;2022-08-19T03:42:46;100342.03;;;19.83;75.24
31092;BME280;17747;51.070;10.930;2022-08-19T03:43:50;100341.72;;;19.88;74.94
31092;BME280;17747;51.070;10.930;2022-08-19T03:44:50;100339.59;;;19.93;74.62
31092;BME280;17747;51.070;10.930;2022-08-19T03:46:00;100345.16;;;20.03;74.87
31092;BME280;17747;51.070;10.930;2022-08-19T03:47:00;100340.22;;;19.97;74.59
31092;BME280;17747;51.070;10.930;2022-08-19T03:48:02;100339.69;;;20.04;74.50
31092;BME280;17747;51.070;10.930;2022-08-19T03:49:04;100340.88;;;20.00;74.35
31092;BME280;17747;51.070;10.930;2022-08-19T03:50:07;100337.81;;;19.79;74.93
31092;BME280;17747;51.070;10.930;2022-08-19T03:51:15;100341.41;;;19.92;74.86
31092;BME280;17747;51.070;10.930;2022-08-19T03:52:17;100343.22;;;19.92;74.65
31092;BME280;17747;51.070;10.930;2022-08-19T03:53:18;100342.72;;;20.00;74.54
31092;BME280;17747;51.070;10.930;2022-08-19T03:54:21;100339.06;;;20.01;74.37
31092;BME280;17747;51.070;10.930;2022-08-19T03:55:23;100329.81;;;19.92;74.27
31092;BME280;17747;51.070;10.930;2022-08-19T03:56:25;100329.78;;;19.66;75.22
31092;BME280;17747;51.070;10.930;2022-08-19T03:57:26;100319.56;;;19.59;75.38
31092;BME280;17747;51.070;10.930;2022-08-19T03:58:29;100318.22;;;19.39;76.21
31092;BME280;17747;51.070;10.930;2022-08-19T03:59:32;100315.03;;;19.47;76.02
31092;BME280;17747;51.070;10.930;2022-08-19T04:00:34;100312.28;;;19.61;75.69
31092;BME280;17747;51.070;10.930;2022-08-19T04:01:36;100314.22;;;19.59;75.35
31092;BME280;17747;51.070;10.930;2022-08-19T04:02:37;100298.63;;;19.38;76.00
31092;BME280;17747;51.070;10.930;2022-08-19T04:03:38;100301.31;;;19.51;76.12
31092;BME280;17747;51.070;10.930;2022-08-19T04:04:42;100294.03;;;19.53;75.64
31092;BME280;17747;51.070;10.930;2022-08-19T04:05:45;100289.75;;;19.51;76.02
31092;BME280;17747;51.070;10.930;2022-08-19T04:06:47;100289.47;;;19.55;75.46
31092;BME280;17747;51.070;10.930;2022-08-19T04:07:48;100280.13;;;19.48;75.83
31092;BME280;17747;51.070;10.930;2022-08-19T04:08:51;100285.34;;;19.37;76.12
31092;BME280;17747;51.070;10.930;2022-08-19T04:09:54;100277.03;;;19.54;75.77
31092;BME280;17747;51.070;10.930;2022-08-19T04:10:54;100266.47;;;19.38;76.09
31092;BME280;17747;51.070;10.930;2022-08-19T04:11:57;100264.91;;;19.49;75.94
31092;BME280;17747;51.070;10.930;2022-08-19T04:12:57;100258.69;;;19.48;76.06
31092;BME280;17747;51.070;10.930;2022-08-19T04:14:00;100256.34;;;19.56;75.53
31092;BME280;17747;51.070;10.930;2022-08-19T04:15:01;100252.44;;;19.22;76.66
31092;BME280;17747;51.070;10.930;2022-08-19T04:16:03;100250.75;;;19.47;76.15
31092;BME280;17747;51.070;10.930;2022-08-19T04:17:04;100241.88;;;19.46;76.19
31092;BME280;17747;51.070;10.930;2022-08-19T04:18:05;100237.47;;;19.45;76.45
31092;BME280;17747;51.070;10.930;2022-08-19T04:19:07;100235.88;;;19.55;75.96
31092;BME280;17747;51.070;10.930;2022-08-19T04:20:09;100234.91;;;19.44;75.88
31092;BME280;17747;51.070;10.930;2022-08-19T04:21:16;100232.09;;;19.32;76.74
31092;BME280;17747;51.070;10.930;2022-08-19T04:22:17;100235.19;;;19.39;76.71
31092;BME280;17747;51.070;10.930;2022-08-19T04:23:19;100233.72;;;19.35;76.87
31092;BME280;17747;51.070;10.930;2022-08-19T04:24:20;100240.22;;;19.31;76.76
31092;BME280;17747;51.070;10.930;2022-08-19T04:25:21;100234.19;;;19.15;77.90
31092;BME280;17747;51.070;10.930;2022-08-19T04:26:25;100237.56;;;19.04;78.02
31092;BME280;17747;51.070;10.930;2022-08-19T04:27:27;100242.66;;;18.94;78.78
31092;BME280;17747;51.070;10.930;2022-08-19T04:28:28;100244.69;;;19.18;77.85
31092;BME280;17747;51.070;10.930;2022-08-19T04:29:31;100255.00;;;19.24;77.79
31092;BME280;17747;51.070;10.930;2022-08-19T04:30:38;100247.75;;;18.85;78.32
31092;BME280;17747;51.070;10.930;2022-08-19T04:31:40;100246.72;;;18.87;78.20
31092;BME280;17747;51.070;10.930;2022-08-19T04:32:41;100247.25;;;19.19;77.35
31092;BME280;17747;51.070;10.930;2022-08-19T04:33:43;100248.16;;;19.32;76.76
31092;BME280;17747;51.070;10.930;2022-08-19T04:34:44;100254.19;;;18.82;77.34
31092;BME280;17747;51.070;10.930;2022-08-19T04:35:47;100252.56;;;18.79;77.91
31092;BME280;17747;51.070;10.930;2022-08-19T04:36:49;100253.66;;;18.63;78.57
31092;BME280;17747;51.070;10.930;2022-08-19T04:37:51;100257.94;;;18.53;79.39
31092;BME280;17747;51.070;10.930;2022-08-19T04:38:54;100261.47;;;18.80;79.04
31092;BME280;17747;51.070;10.930;2022-08-19T04:39:55;100265.13;;;19.06;77.89
31092;BME280;17747;51.070;10.930;2022-08-19T04:41:15;100266.56;;;18.70;78.76
31092;BME280;17747;51.070;10.930;2022-08-19T04:42:30;100269.19;;;18.85;78.71
31092;BME280;17747;51.070;10.930;2022-08-19T04:43:40;100273.94;;;18.94;77.44
31092;BME280;17747;51.070;10.930;2022-08-19T04:44:43;100275.25;;;19.28;76.78
31092;BME280;17747;51.070;10.930;2022-08-19T04:45:43;100275.53;;;19.11;77.14
31092;BME280;17747;51.070;10.930;2022-08-19T04:46:46;100279.97;;;18.83;77.76
31092;BME280;17747;51.070;10.930;2022-08-19T04:47:47;100282.81;;;18.94;77.72
31092;BME280;17747;51.070;10.930;2022-08-19T04:48:49;100278.63;;;18.90;78.49
31092;BME280;17747;51.070;10.930;2022-08-19T04:49:49;100279.44;;;19.32;76.74
31092;BME280;17747;51.070;10.930;2022-08-19T04:50:52;100285.22;;;19.38;76.21
31092;BME280;17747;51.070;10.930;2022-08-19T04:51:57;100285.69;;;19.45;76.25
31092;BME280;17747;51.070;10.930;2022-08-19T04:52:59;100288.97;;;19.36;76.44
31092;BME280;17747;51.070;10.930;2022-08-19T04:54:01;100296.66;;;19.01;77.58
31092;BME280;17747;51.070;10.930;2022-08-19T04:55:03;100295.88;;;18.86;78.04
31092;BME280;17747;51.070;10.930;2022-08-19T04:56:07;100302.09;;;18.72;78.85
31092;BME280;17747;51.070;10.930;2022-08-19T04:57:09;100310.16;;;18.85;78.96
31092;BME280;17747;51.070;10.930;2022-08-19T04:58:10;100300.47;;;18.70;79.52
31092;BME280;17747;51.070;10.930;2022-08-19T04:59:11;100301.75;;;18.91;78.89
31092;BME280;17747;51.070;10.930;2022-08-19T05:00:14;100304.44;;;19.18;78.84
31092;BME280;17747;51.070;10.930;2022-08-19T05:01:18;100305.13;;;19.22;77.89
31092;BME280;17747;51.070;10.930;2022-08-19T05:02:20;100298.13;;;19.59;76.50
31092;BME280;17747;51.070;10.930;2022-08-19T05:03:23;100296.44;;;19.71;75.95
31092;BME280;17747;51.070;10.930;2022-08-19T05:04:24;100302.88;;;19.81;75.56
31092;BME280;17747;51.070;10.930;2022-08-19T05:05:25;100296.69;;;19.93;75.13
31092;BME280;17747;51.070;10.930;2022-08-19T05:06:27;100298.88;;;19.08;77.13
31092;BME280;17747;51.070;10.930;2022-08-19T05:07:28;100293.59;;;19.34;77.14
31092;BME280;17747;51.070;10.930;2022-08-19T05:08:31;100306.63;;;19.26;77.11
31092;BME280;17747;51.070;10.930;2022-08-19T05:09:31;100304.91;;;19.25;77.66
31092;BME280;17747;51.070;10.930;2022-08-19T05:10:34;100299.94;;;19.58;76.61
31092;BME280;17747;51.070;10.930;2022-08-19T05:11:37;100303.75;;;19.42;77.08
31092;BME280;17747;51.070;10.930;2022-08-19T05:12:39;100297.91;;;19.75;75.99
31092;BME280;17747;51.070;10.930;2022-08-19T05:13:40;100296.41;;;19.45;77.19
31092;BME280;17747;51.070;10.930;2022-08-19T05:14:42;100299.22;;;19.69;76.03
31092;BME280;17747;51.070;10.930;2022-08-19T05:15:53;100310.50;;;19.87;75.60
31092;BME280;17747;51.070;10.930;2022-08-19T05:16:55;100307.03;;;19.72;75.36
31092;BME280;17747;51.070;10.930;2022-08-19T05:17:56;100313.38;;;19.71;75.78
31092;BME280;17747;51.070;10.930;2022-08-19T05:19:15;100321.28;;;19.60;76.42
31092;BME280;17747;51.070;10.930;2022-08-19T05:20:34;100318.47;;;19.49;76.80
31092;BME280;17747;51.070;10.930;2022-08-19T05:21:55;100325.78;;;19.59;76.36
31092;BME280;17747;51.070;10.930;2022-08-19T05:23:14;100319.59;;;19.72;75.93